Time;durP1;ratioP1;P1;durP2;ratioP2;P2;SDS_P1;SDS_P2;PMS_P1;PMS_P2;Temp;Humidity;BMP_temperature;BMP_pressure;BME280_temperature;BME280_humidity;BME280_pressure;Samples;Min_cycle;Max_cycle;Signal;HPM_P1;HPM_P2
2022/07/22 00:01:14;;;;;;;0.10;0.10;;;;;;;;;;4993390;28;20034;-84
2022/07/22 00:03:40;;;;;;;0.10;0.10;;;;;;;;;;4992634;28;20022;-84
2022/07/22 00:06:07;;;;;;;0.10;0.10;;;;;;;;;;4991846;28;20471;-81
2022/07/22 00:08:33;;;;;;;0.08;0.08;;;;;;;;;;4993132;28;20026;-84
2022/07/22 00:10:59;;;;;;;0.10;0.10;;;;;;;;;;4992886;28;20226;-89
2022/07/22 00:13:25;;;;;;;0.10;0.10;;;;;;;;;;4993028;28;20478;-81
2022/07/22 00:15:51;;;;;;;0.20;0.20;;;;;;;;;;4991272;28;20029;-83
2022/07/22 00:18:17;;;;;;;0.10;0.10;;;;;;;;;;4993032;28;20053;-84
2022/07/22 00:20:43;;;;;;;0.10;0.10;;;;;;;;;;4992751;28;20108;-87
2022/07/22 00:23:09;;;;;;;0.10;0.10;;;;;;;;;;4991339;28;20022;-81
2022/07/22 00:25:35;;;;;;;0.10;0.10;;;;;;;;;;4993267;28;20041;-90
2022/07/22 00:28:01;;;;;;;0.10;0.10;;;;;;;;;;4992478;28;20023;-84
2022/07/22 00:30:27;;;;;;;0.10;0.10;;;;;;;;;;4991542;28;20406;-89
2022/07/22 00:32:53;;;;;;;0.10;0.10;;;;;;;;;;4992508;28;20046;-89
2022/07/22 00:35:19;;;;;;;0.10;0.10;;;;;;;;;;4992670;28;20033;-89
2022/07/22 00:37:45;;;;;;;0.10;0.10;;;;;;;;;;4992551;28;20057;-89
2022/07/22 00:40:11;;;;;;;0.10;0.10;;;;;;;;;;4992845;28;20031;-90
2022/07/22 00:42:37;;;;;;;0.10;0.10;;;;;;;;;;4992820;28;20033;-90
2022/07/22 00:45:03;;;;;;;0.10;0.10;;;;;;;;;;4992297;28;20031;-88
2022/07/22 00:47:29;;;;;;;0.10;0.10;;;;;;;;;;4992034;28;20085;-85
2022/07/22 00:49:55;;;;;;;0.10;0.10;;;;;;;;;;4992164;28;20068;-89
2022/07/22 00:52:22;;;;;;;0.10;0.10;;;;;;;;;;4992430;28;20046;-86
2022/07/22 00:54:48;;;;;;;0.10;0.10;;;;;;;;;;4990787;28;20500;-90
2022/07/22 00:57:14;;;;;;;0.10;0.10;;;;;;;;;;4992212;28;20510;-87
2022/07/22 00:59:40;;;;;;;0.10;0.10;;;;;;;;;;4992010;28;20110;-87
2022/07/22 01:02:06;;;;;;;0.10;0.10;;;;;;;;;;4992304;28;20037;-91
2022/07/22 01:04:32;;;;;;;0.10;0.10;;;;;;;;;;4992291;28;20034;-90
2022/07/22 01:06:58;;;;;;;0.10;0.10;;;;;;;;;;4991936;28;20057;-88
2022/07/22 01:09:24;;;;;;;0.10;0.10;;;;;;;;;;4990838;28;20509;-92
2022/07/22 01:11:50;;;;;;;0.10;0.10;;;;;;;;;;4991955;28;20038;-88
2022/07/22 01:14:16;;;;;;;0.10;0.10;;;;;;;;;;4992095;28;20027;-90
2022/07/22 01:16:42;;;;;;;0.10;0.10;;;;;;;;;;4991841;28;20049;-88
2022/07/22 01:19:08;;;;;;;0.10;0.10;;;;;;;;;;4990984;28;20026;-89
2022/07/22 01:21:34;;;;;;;0.10;0.10;;;;;;;;;;4992170;28;20037;-89
2022/07/22 01:24:00;;;;;;;0.10;0.10;;;;;;;;;;4991752;28;20545;-85
2022/07/22 01:26:26;;;;;;;0.10;0.10;;;;;;;;;;4991734;28;20033;-87
2022/07/22 01:28:52;;;;;;;0.10;0.10;;;;;;;;;;4991491;28;20022;-87
2022/07/22 01:31:18;;;;;;;0.10;0.10;;;;;;;;;;4991500;28;20076;-88
2022/07/22 01:33:44;;;;;;;0.10;0.10;;;;;;;;;;4994324;28;20548;-89
2022/07/22 01:36:10;;;;;;;0.10;0.10;;;;;;;;;;4996953;28;20071;-88
2022/07/22 01:38:36;;;;;;;0.10;0.10;;;;;;;;;;4998692;28;20030;-88
2022/07/22 01:41:02;;;;;;;0.10;0.10;;;;;;;;;;4998997;28;20021;-88
2022/07/22 01:43:29;;;;;;;0.10;0.10;;;;;;;;;;4998728;28;20394;-90
2022/07/22 01:45:55;;;;;;;0.10;0.10;;;;;;;;;;4996501;28;20482;-90
2022/07/22 01:48:21;;;;;;;0.10;0.10;;;;;;;;;;4998262;28;20084;-90
2022/07/22 01:50:47;;;;;;;0.10;0.10;;;;;;;;;;4997995;28;20077;-90
2022/07/22 01:53:13;;;;;;;0.20;0.20;;;;;;;;;;4998084;28;20035;-89
2022/07/22 01:55:39;;;;;;;0.10;0.10;;;;;;;;;;4998403;28;20026;-78
2022/07/22 01:58:05;;;;;;;0.10;0.10;;;;;;;;;;4998482;28;20035;-91
2022/07/22 02:00:32;;;;;;;0.10;0.10;;;;;;;;;;4997204;28;20061;-90
2022/07/22 02:02:58;;;;;;;0.10;0.10;;;;;;;;;;4997881;28;20023;-91
2022/07/22 02:05:24;;;;;;;0.10;0.10;;;;;;;;;;4999221;28;20026;-91
2022/07/22 02:07:50;;;;;;;0.10;0.10;;;;;;;;;;4997841;28;20037;-88
2022/07/22 02:10:16;;;;;;;0.10;0.10;;;;;;;;;;4998165;28;20053;-89
2022/07/22 02:12:42;;;;;;;0.10;0.10;;;;;;;;;;4997822;28;20042;-91
2022/07/22 02:15:09;;;;;;;0.10;0.10;;;;;;;;;;5001049;28;20022;-90
2022/07/22 02:17:35;;;;;;;0.10;0.10;;;;;;;;;;4999999;28;20076;-93
2022/07/22 02:20:02;;;;;;;0.10;0.10;;;;;;;;;;5000124;28;20042;-93
2022/07/22 02:22:28;;;;;;;0.10;0.10;;;;;;;;;;4998764;28;20402;-93
2022/07/22 02:24:54;;;;;;;0.10;0.10;;;;;;;;;;4998210;28;20029;-94
2022/07/22 02:27:20;;;;;;;0.10;0.10;;;;;;;;;;4998103;28;20037;-90
2022/07/22 02:29:46;;;;;;;0.17;0.17;;;;;;;;;;4997573;28;20022;-90
2022/07/22 02:32:12;;;;;;;0.10;0.10;;;;;;;;;;4997784;28;20046;-88
2022/07/22 02:34:38;;;;;;;0.10;0.10;;;;;;;;;;4998336;28;20026;-87
2022/07/22 02:37:04;;;;;;;0.10;0.10;;;;;;;;;;4998025;28;20471;-92
2022/07/22 02:39:30;;;;;;;0.10;0.10;;;;;;;;;;4997721;28;20026;-88
2022/07/22 02:41:56;;;;;;;0.10;0.10;;;;;;;;;;4997692;28;20022;-90
2022/07/22 02:44:22;;;;;;;0.10;0.10;;;;;;;;;;4997723;28;20057;-92
2022/07/22 02:46:48;;;;;;;0.10;0.10;;;;;;;;;;4993976;28;20022;-90
2022/07/22 02:49:14;;;;;;;0.10;0.10;;;;;;;;;;4995122;28;20075;-94
2022/07/22 02:51:40;;;;;;;0.10;0.10;;;;;;;;;;4994381;28;20070;-92
2022/07/22 02:54:06;;;;;;;0.10;0.10;;;;;;;;;;4995447;28;20470;-92
2022/07/22 02:56:32;;;;;;;0.10;0.10;;;;;;;;;;4996402;28;20110;-89
2022/07/22 02:58:58;;;;;;;0.10;0.10;;;;;;;;;;4994837;28;20046;-89
2022/07/22 03:01:24;;;;;;;0.10;0.10;;;;;;;;;;4994933;28;20533;-94
2022/07/22 03:03:50;;;;;;;0.10;0.10;;;;;;;;;;4994673;28;20034;-88
2022/07/22 03:06:16;;;;;;;0.10;0.10;;;;;;;;;;4994947;28;20076;-93
2022/07/22 03:08:42;;;;;;;0.10;0.10;;;;;;;;;;4994561;28;20076;-89
2022/07/22 03:11:08;;;;;;;0.10;0.10;;;;;;;;;;4994719;28;20029;-87
2022/07/22 03:13:34;;;;;;;0.10;0.10;;;;;;;;;;4994922;28;20038;-89
2022/07/22 03:16:00;;;;;;;0.10;0.10;;;;;;;;;;4994427;28;20168;-89
2022/07/22 03:18:26;;;;;;;0.10;0.10;;;;;;;;;;4994408;28;20109;-93
2022/07/22 03:20:52;;;;;;;0.10;0.10;;;;;;;;;;4994141;28;20432;-87
2022/07/22 03:23:18;;;;;;;0.15;0.15;;;;;;;;;;4993393;28;20125;-89
2022/07/22 03:25:44;;;;;;;0.10;0.10;;;;;;;;;;4997074;28;20034;-93
2022/07/22 03:28:10;;;;;;;0.10;0.10;;;;;;;;;;4997035;28;20042;-85
2022/07/22 03:30:36;;;;;;;0.10;0.10;;;;;;;;;;4994772;28;20031;-92
2022/07/22 03:33:02;;;;;;;0.10;0.10;;;;;;;;;;4993829;28;20120;-90
2022/07/22 03:35:28;;;;;;;0.20;0.20;;;;;;;;;;4993896;28;20122;-84
2022/07/22 03:37:54;;;;;;;0.10;0.10;;;;;;;;;;4993999;28;20105;-89
2022/07/22 03:40:20;;;;;;;0.20;0.20;;;;;;;;;;4993615;28;20066;-88
2022/07/22 03:42:46;;;;;;;0.10;0.10;;;;;;;;;;4992766;28;20042;-90
2022/07/22 03:45:12;;;;;;;0.10;0.10;;;;;;;;;;4993842;28;20490;-88
2022/07/22 03:47:38;;;;;;;0.10;0.10;;;;;;;;;;4994038;28;20042;-88
2022/07/22 03:50:05;;;;;;;0.10;0.10;;;;;;;;;;4993814;28;20018;-89
2022/07/22 03:52:30;;;;;;;0.10;0.10;;;;;;;;;;4993110;28;20081;-81
2022/07/22 03:54:56;;;;;;;0.15;0.15;;;;;;;;;;4993627;28;20054;-84
2022/07/22 03:57:22;;;;;;;0.10;0.10;;;;;;;;;;4992049;28;20611;-87
2022/07/22 03:59:48;;;;;;;0.10;0.10;;;;;;;;;;4993434;28;20023;-85
2022/07/22 04:02:14;;;;;;;0.10;0.10;;;;;;;;;;4993169;28;20034;-81
2022/07/22 04:04:40;;;;;;;0.10;0.10;;;;;;;;;;4993616;28;20078;-79
2022/07/22 04:07:06;;;;;;;0.10;0.10;;;;;;;;;;4993791;28;20494;-85
2022/07/22 04:09:33;;;;;;;0.10;0.10;;;;;;;;;;4993244;28;20030;-92
2022/07/22 04:11:59;;;;;;;0.10;0.10;;;;;;;;;;4993292;28;20034;-91
2022/07/22 04:14:25;;;;;;;0.10;0.10;;;;;;;;;;4992863;28;20049;-90
2022/07/22 04:16:51;;;;;;;0.10;0.10;;;;;;;;;;4991870;28;20038;-88
2022/07/22 04:19:17;;;;;;;0.10;0.10;;;;;;;;;;4992974;28;20032;-85
2022/07/22 04:21:43;;;;;;;0.10;0.10;;;;;;;;;;4993034;28;20110;-89
2022/07/22 04:24:09;;;;;;;0.10;0.10;;;;;;;;;;4993222;28;20457;-84
2022/07/22 04:26:36;;;;;;;0.10;0.10;;;;;;;;;;4992886;28;20026;-93
2022/07/22 04:29:02;;;;;;;0.00;0.00;;;;;;;;;;4993252;28;20037;-84
2022/07/22 04:31:28;;;;;;;0.10;0.10;;;;;;;;;;4992514;28;20034;-84
2022/07/22 04:33:54;;;;;;;0.10;0.10;;;;;;;;;;4992834;28;20398;-90
2022/07/22 04:36:20;;;;;;;0.10;0.10;;;;;;;;;;4992508;28;20026;-86
2022/07/22 04:38:46;;;;;;;0.10;0.10;;;;;;;;;;4992333;28;20030;-89
2022/07/22 04:41:12;;;;;;;0.10;0.10;;;;;;;;;;4992929;28;20042;-79
2022/07/22 04:43:38;;;;;;;0.10;0.10;;;;;;;;;;4992963;28;20077;-89
2022/07/22 04:46:05;;;;;;;0.10;0.10;;;;;;;;;;4992300;28;20018;-82
2022/07/22 04:48:31;;;;;;;0.10;0.10;;;;;;;;;;4992174;28;20018;-80
2022/07/22 04:51:01;;;;;;;0.10;0.10;;;;;;;;;;4992684;28;20026;-81
2022/07/22 04:53:27;;;;;;;0.10;0.10;;;;;;;;;;4992072;28;20097;-82
2022/07/22 04:55:53;;;;;;;0.10;0.10;;;;;;;;;;4992558;28;20031;-80
2022/07/22 04:58:19;;;;;;;0.10;0.10;;;;;;;;;;4992386;28;20034;-82
2022/07/22 05:00:46;;;;;;;0.10;0.10;;;;;;;;;;4992400;28;20019;-79
2022/07/22 05:03:12;;;;;;;0.20;0.20;;;;;;;;;;4992476;28;20031;-88
2022/07/22 05:05:38;;;;;;;0.10;0.10;;;;;;;;;;4992557;28;20026;-82
2022/07/22 05:08:04;;;;;;;0.10;0.10;;;;;;;;;;4991931;28;20026;-86
2022/07/22 05:10:32;;;;;;;0.10;0.10;;;;;;;;;;4991929;28;20026;-80
2022/07/22 05:12:58;;;;;;;0.10;0.10;;;;;;;;;;4992179;28;20058;-79
2022/07/22 05:15:24;;;;;;;0.10;0.10;;;;;;;;;;4992012;28;20018;-85
2022/07/22 05:17:50;;;;;;;0.10;0.10;;;;;;;;;;4992520;28;20087;-81
2022/07/22 05:20:16;;;;;;;0.10;0.10;;;;;;;;;;4992109;28;20073;-81
2022/07/22 05:22:42;;;;;;;0.10;0.10;;;;;;;;;;4992390;28;20033;-83
2022/07/22 05:25:08;;;;;;;0.10;0.10;;;;;;;;;;4992340;28;20022;-82
2022/07/22 05:27:35;;;;;;;0.10;0.10;;;;;;;;;;4992179;28;20030;-86
2022/07/22 05:30:01;;;;;;;0.10;0.10;;;;;;;;;;4992293;28;20046;-81
2022/07/22 05:32:27;;;;;;;0.10;0.10;;;;;;;;;;4990555;28;20503;-82
2022/07/22 05:34:53;;;;;;;0.10;0.10;;;;;;;;;;4986249;28;20080;-85
2022/07/22 05:37:19;;;;;;;0.10;0.10;;;;;;;;;;4986019;28;20041;-80
2022/07/22 05:39:45;;;;;;;0.10;0.10;;;;;;;;;;4985399;28;20019;-82
2022/07/22 05:42:11;;;;;;;0.10;0.10;;;;;;;;;;4985644;28;20049;-82
2022/07/22 05:44:37;;;;;;;0.10;0.10;;;;;;;;;;4984775;28;20023;-86
2022/07/22 05:47:03;;;;;;;0.10;0.10;;;;;;;;;;4985142;28;20402;-88
2022/07/22 05:49:29;;;;;;;0.10;0.10;;;;;;;;;;4991582;28;20041;-80
2022/07/22 05:52:00;;;;;;;0.10;0.10;;;;;;;;;;4990827;28;20494;-90
2022/07/22 05:54:26;;;;;;;0.10;0.10;;;;;;;;;;5007338;28;20027;-80
2022/07/22 05:56:52;;;;;;;0.10;0.10;;;;;;;;;;4991874;28;20402;-91
2022/07/22 05:59:18;;;;;;;0.10;0.10;;;;;;;;;;5006654;28;20027;-82
2022/07/22 06:01:44;;;;;;;0.10;0.10;;;;;;;;;;4991492;28;20089;-83
2022/07/22 06:04:09;;;;;;;0.10;0.10;;;;;;;;;;4992068;28;20050;-89
2022/07/22 06:06:35;;;;;;;0.10;0.10;;;;;;;;;;4990774;28;20049;-88
2022/07/22 06:09:01;;;;;;;0.10;0.10;;;;;;;;;;4991409;28;20112;-86
2022/07/22 06:11:27;;;;;;;0.10;0.10;;;;;;;;;;4991369;28;20065;-84
2022/07/22 06:13:54;;;;;;;0.10;0.10;;;;;;;;;;4991636;28;20105;-81
2022/07/22 06:16:20;;;;;;;0.10;0.10;;;;;;;;;;4990448;28;20038;-80
2022/07/22 06:18:46;;;;;;;0.10;0.10;;;;;;;;;;4991069;28;20035;-82
2022/07/22 06:21:12;;;;;;;0.10;0.10;;;;;;;;;;4993807;28;20064;-77
2022/07/22 06:23:37;;;;;;;0.10;0.10;;;;;;;;;;4994992;28;20540;-78
2022/07/22 06:26:03;;;;;;;0.10;0.10;;;;;;;;;;4994797;28;20034;-79
2022/07/22 06:28:30;;;;;;;0.10;0.10;;;;;;;;;;4994747;28;20026;-77
2022/07/22 06:30:56;;;;;;;0.10;0.10;;;;;;;;;;5009725;28;20058;-80
2022/07/22 06:33:22;;;;;;;0.10;0.10;;;;;;;;;;4994722;28;20446;-78
2022/07/22 06:35:48;;;;;;;0.10;0.10;;;;;;;;;;4995004;28;20442;-82
2022/07/22 06:38:14;;;;;;;0.10;0.10;;;;;;;;;;4994746;28;20026;-78
2022/07/22 06:40:40;;;;;;;0.10;0.10;;;;;;;;;;4994423;28;20126;-80
2022/07/22 06:43:06;;;;;;;0.10;0.10;;;;;;;;;;4994600;28;20022;-77
2022/07/22 06:45:32;;;;;;;0.10;0.10;;;;;;;;;;4990801;28;20109;-81
2022/07/22 06:47:58;;;;;;;0.10;0.10;;;;;;;;;;4982446;28;20027;-78
2022/07/22 06:50:24;;;;;;;0.10;0.10;;;;;;;;;;4982961;28;20018;-78
2022/07/22 06:52:50;;;;;;;0.10;0.10;;;;;;;;;;4982613;28;20042;-77
2022/07/22 06:55:16;;;;;;;0.10;0.10;;;;;;;;;;4977010;28;20026;-77
2022/07/22 06:57:42;;;;;;;0.10;0.10;;;;;;;;;;4975405;28;20022;-76
2022/07/22 07:00:09;;;;;;;0.10;0.10;;;;;;;;;;4975346;28;20026;-79
2022/07/22 07:02:35;;;;;;;0.10;0.10;;;;;;;;;;4974780;28;20081;-78
2022/07/22 07:05:02;;;;;;;0.10;0.10;;;;;;;;;;4991049;28;20018;-80
2022/07/22 07:07:28;;;;;;;0.10;0.10;;;;;;;;;;4990520;28;20490;-84
2022/07/22 07:09:54;;;;;;;0.10;0.10;;;;;;;;;;4993316;28;20030;-83
2022/07/22 07:12:20;;;;;;;0.10;0.10;;;;;;;;;;4993431;28;20042;-78
2022/07/22 07:14:46;;;;;;;0.10;0.10;;;;;;;;;;4993820;28;20026;-85
2022/07/22 07:17:15;;;;;;;0.10;0.10;;;;;;;;;;4994487;28;20477;-87
2022/07/22 07:19:40;;;;;;;0.10;0.10;;;;;;;;;;4993756;28;20010;-87
2022/07/22 07:22:07;;;;;;;0.10;0.10;;;;;;;;;;4995003;28;20130;-92
2022/07/22 07:24:33;;;;;;;0.10;0.10;;;;;;;;;;4994282;28;20023;-78
2022/07/22 07:26:59;;;;;;;0.10;0.10;;;;;;;;;;4994234;28;20030;-87
2022/07/22 07:29:25;;;;;;;0.10;0.10;;;;;;;;;;4994043;28;20102;-78
2022/07/22 07:31:51;;;;;;;0.20;0.20;;;;;;;;;;4993424;28;20034;-77
2022/07/22 07:34:17;;;;;;;0.10;0.10;;;;;;;;;;4992523;28;20026;-80
2022/07/22 07:36:43;;;;;;;0.10;0.10;;;;;;;;;;4996507;28;20037;-77
2022/07/22 07:39:09;;;;;;;0.10;0.10;;;;;;;;;;4995245;28;20030;-79
2022/07/22 07:41:35;;;;;;;0.17;0.17;;;;;;;;;;4993154;28;20034;-88
2022/07/22 07:44:01;;;;;;;0.10;0.10;;;;;;;;;;4974200;28;20029;-77
2022/07/22 07:46:27;;;;;;;0.00;0.00;;;;;;;;;;4973913;28;20031;-80
2022/07/22 07:48:53;;;;;;;0.10;0.10;;;;;;;;;;4973036;28;20027;-78
2022/07/22 07:51:19;;;;;;;0.10;0.10;;;;;;;;;;4973897;28;20539;-79
2022/07/22 07:53:45;;;;;;;0.10;0.10;;;;;;;;;;4972679;28;20391;-80
2022/07/22 07:56:11;;;;;;;0.10;0.10;;;;;;;;;;4974640;28;20475;-89
2022/07/22 07:58:37;;;;;;;0.10;0.10;;;;;;;;;;4991652;28;20031;-85
2022/07/22 08:01:03;;;;;;;0.10;0.10;;;;;;;;;;4993334;28;20492;-81
2022/07/22 08:03:29;;;;;;;0.10;0.10;;;;;;;;;;4993227;28;20057;-78
2022/07/22 08:05:55;;;;;;;0.10;0.10;;;;;;;;;;4993192;28;20113;-73
2022/07/22 08:08:21;;;;;;;0.10;0.10;;;;;;;;;;4992953;28;20093;-82
2022/07/22 08:10:47;;;;;;;0.20;0.20;;;;;;;;;;4993261;28;20450;-86
2022/07/22 08:13:13;;;;;;;0.10;0.10;;;;;;;;;;4992458;28;20074;-73
2022/07/22 08:15:39;;;;;;;0.10;0.10;;;;;;;;;;4993308;28;20022;-84
2022/07/22 08:18:05;;;;;;;0.10;0.10;;;;;;;;;;4993118;28;20026;-85
2022/07/22 08:20:31;;;;;;;0.10;0.10;;;;;;;;;;4992147;28;20034;-81
2022/07/22 08:22:57;;;;;;;0.05;0.05;;;;;;;;;;4991601;28;20058;-77
2022/07/22 08:25:23;;;;;;;0.13;0.13;;;;;;;;;;4988572;28;20120;-75
2022/07/22 08:27:50;;;;;;;0.10;0.10;;;;;;;;;;4992552;28;20522;-80
2022/07/22 08:30:16;;;;;;;0.10;0.10;;;;;;;;;;4992504;28;20030;-82
2022/07/22 08:32:42;;;;;;;0.10;0.10;;;;;;;;;;4992752;28;20038;-83
2022/07/22 08:35:09;;;;;;;0.10;0.10;;;;;;;;;;4993063;28;20130;-78
2022/07/22 08:37:35;;;;;;;0.10;0.10;;;;;;;;;;4992411;28;20614;-81
2022/07/22 08:40:01;;;;;;;0.10;0.10;;;;;;;;;;4992569;28;20028;-77
2022/07/22 08:42:27;;;;;;;0.10;0.10;;;;;;;;;;4991748;28;20038;-78
2022/07/22 08:44:55;;;;;;;0.10;0.10;;;;;;;;;;4992657;28;20068;-78
2022/07/22 08:47:22;;;;;;;0.10;0.10;;;;;;;;;;4992236;28;20098;-79
2022/07/22 08:49:48;;;;;;;0.10;0.10;;;;;;;;;;4992373;28;20034;-78
2022/07/22 08:52:14;;;;;;;0.10;0.10;;;;;;;;;;4990768;28;20066;-76
2022/07/22 08:54:40;;;;;;;0.10;0.10;;;;;;;;;;4992708;28;20085;-79
2022/07/22 08:57:05;;;;;;;0.10;0.10;;;;;;;;;;4990659;28;20439;-78
2022/07/22 08:59:31;;;;;;;0.10;0.10;;;;;;;;;;4992046;28;20076;-80
2022/07/22 09:02:01;;;;;;;0.05;0.05;;;;;;;;;;4992244;28;20378;-79
2022/07/22 09:04:27;;;;;;;0.10;0.10;;;;;;;;;;4992087;28;20069;-78
2022/07/22 09:06:53;;;;;;;0.10;0.10;;;;;;;;;;4992202;28;20030;-83
2022/07/22 09:09:29;;;;;;;0.10;0.10;;;;;;;;;;4992011;28;20105;-84
2022/07/22 09:12:04;;;;;;;0.00;0.00;;;;;;;;;;4991817;28;20026;-85
2022/07/22 09:14:43;;;;;;;0.10;0.10;;;;;;;;;;4990315;28;20042;-84
2022/07/22 09:17:22;;;;;;;0.10;0.10;;;;;;;;;;4991743;28;20541;-76
2022/07/22 09:19:48;;;;;;;0.10;0.10;;;;;;;;;;4992053;28;20076;-81
2022/07/22 09:22:14;;;;;;;0.10;0.10;;;;;;;;;;4991179;28;20026;-82
2022/07/22 09:24:40;;;;;;;0.10;0.10;;;;;;;;;;4992140;28;20041;-84
2022/07/22 09:27:07;;;;;;;0.10;0.10;;;;;;;;;;4991926;28;20026;-85
2022/07/22 09:29:33;;;;;;;0.10;0.10;;;;;;;;;;4991723;28;20080;-81
2022/07/22 09:32:01;;;;;;;0.10;0.10;;;;;;;;;;4991686;28;20039;-82
2022/07/22 09:34:30;;;;;;;0.10;0.10;;;;;;;;;;4991530;28;20057;-83
2022/07/22 09:36:57;;;;;;;0.10;0.10;;;;;;;;;;4991548;28;20022;-84
2022/07/22 09:39:30;;;;;;;0.10;0.10;;;;;;;;;;4991638;28;20026;-79
2022/07/22 09:42:00;;;;;;;0.20;0.20;;;;;;;;;;4991104;28;20026;-82
2022/07/22 09:44:26;;;;;;;0.10;0.10;;;;;;;;;;4989942;28;20030;-80
2022/07/22 09:46:52;;;;;;;0.10;0.10;;;;;;;;;;4990011;28;20054;-79
2022/07/22 09:49:35;;;;;;;0.10;0.10;;;;;;;;;;4991440;28;20539;-80
2022/07/22 09:52:01;;;;;;;0.10;0.10;;;;;;;;;;4991320;28;20066;-82
2022/07/22 09:54:29;;;;;;;0.10;0.10;;;;;;;;;;4992205;28;20058;-82
2022/07/22 09:56:55;;;;;;;0.10;0.10;;;;;;;;;;4995201;28;20024;-85
2022/07/22 09:59:21;;;;;;;0.10;0.10;;;;;;;;;;4994226;28;20062;-76
2022/07/22 10:01:47;;;;;;;0.10;0.10;;;;;;;;;;4995404;28;20049;-79
2022/07/22 10:04:14;;;;;;;0.10;0.10;;;;;;;;;;4990248;28;20038;-77
2022/07/22 10:06:41;;;;;;;0.10;0.10;;;;;;;;;;4984539;28;20030;-83
2022/07/22 10:09:08;;;;;;;0.10;0.10;;;;;;;;;;4984990;28;20030;-82
2022/07/22 10:11:35;;;;;;;0.20;0.20;;;;;;;;;;4993749;28;20030;-78
2022/07/22 10:14:01;;;;;;;0.10;0.10;;;;;;;;;;4995653;28;20419;-84
2022/07/22 10:16:27;;;;;;;0.10;0.10;;;;;;;;;;4993487;28;20494;-82
2022/07/22 10:18:53;;;;;;;0.10;0.10;;;;;;;;;;4995354;28;20541;-82
2022/07/22 10:21:19;;;;;;;0.10;0.10;;;;;;;;;;4994998;28;20022;-82
2022/07/22 10:24:04;;;;;;;0.20;0.20;;;;;;;;;;4992510;28;20038;-82
2022/07/22 10:27:02;;;;;;;0.10;0.10;;;;;;;;;;4981012;28;20034;-83
2022/07/22 10:29:30;;;;;;;0.10;0.10;;;;;;;;;;4982529;28;20048;-78
2022/07/22 10:32:16;;;;;;;0.10;0.10;;;;;;;;;;4993113;28;20062;-77
2022/07/22 10:34:43;;;;;;;0.10;0.10;;;;;;;;;;4990766;28;20030;-80
2022/07/22 10:37:27;;;;;;;0.10;0.10;;;;;;;;;;4994722;28;20032;-78
2022/07/22 10:40:20;;;;;;;0.10;0.10;;;;;;;;;;4994852;28;20482;-82
2022/07/22 10:42:58;;;;;;;0.10;0.10;;;;;;;;;;4993671;28;20034;-78
2022/07/22 10:45:25;;;;;;;0.10;0.10;;;;;;;;;;4994204;28;20030;-79
2022/07/22 10:48:00;;;;;;;0.10;0.10;;;;;;;;;;4994030;28;20483;-80
2022/07/22 10:50:35;;;;;;;0.20;0.20;;;;;;;;;;4993828;28;20034;-78
2022/07/22 10:53:02;;;;;;;0.10;0.10;;;;;;;;;;4994289;28;20034;-79
2022/07/22 10:55:28;;;;;;;0.10;0.10;;;;;;;;;;4994527;28;20474;-82
2022/07/22 10:57:54;;;;;;;0.10;0.10;;;;;;;;;;4994614;28;20446;-83
2022/07/22 11:00:20;;;;;;;0.17;0.17;;;;;;;;;;4993862;28;20065;-80
2022/07/22 11:02:46;;;;;;;0.10;0.10;;;;;;;;;;4994518;28;20053;-78
2022/07/22 11:05:12;;;;;;;0.10;0.10;;;;;;;;;;4994663;28;20034;-77
2022/07/22 11:07:45;;;;;;;0.10;0.10;;;;;;;;;;5002546;28;20054;-79
2022/07/22 11:10:11;;;;;;;0.10;0.10;;;;;;;;;;5014781;28;20406;-82
2022/07/22 11:12:37;;;;;;;0.10;0.10;;;;;;;;;;4993899;28;20041;-82
2022/07/22 11:15:06;;;;;;;0.10;0.10;;;;;;;;;;4994575;28;20027;-80
2022/07/22 11:17:34;;;;;;;0.10;0.10;;;;;;;;;;4993716;28;20050;-85
2022/07/22 11:20:00;;;;;;;0.10;0.10;;;;;;;;;;4994499;28;20030;-84
2022/07/22 11:22:27;;;;;;;0.10;0.10;;;;;;;;;;4991497;28;20037;-84
2022/07/22 11:24:53;;;;;;;0.10;0.10;;;;;;;;;;4979281;28;20142;-81
2022/07/22 11:27:24;;;;;;;0.10;0.10;;;;;;;;;;4993822;28;20047;-78
2022/07/22 11:29:52;;;;;;;0.13;0.13;;;;;;;;;;4993858;28;20130;-79
2022/07/22 11:32:19;;;;;;;0.10;0.10;;;;;;;;;;4993483;28;20047;-78
2022/07/22 11:34:46;;;;;;;0.10;0.10;;;;;;;;;;4993968;28;20024;-83
2022/07/22 11:37:16;;;;;;;0.15;0.15;;;;;;;;;;5009283;28;20123;-78
2022/07/22 11:39:42;;;;;;;0.10;0.10;;;;;;;;;;4993091;28;20513;-79
2022/07/22 11:42:08;;;;;;;0.10;0.10;;;;;;;;;;4993629;28;20026;-79
2022/07/22 11:44:36;;;;;;;0.10;0.10;;;;;;;;;;4988581;28;20029;-78
2022/07/22 11:47:02;;;;;;;0.10;0.10;;;;;;;;;;4988299;28;20044;-79
2022/07/22 11:49:29;;;;;;;0.10;0.10;;;;;;;;;;4980790;28;20026;-83
2022/07/22 11:51:56;;;;;;;0.08;0.08;;;;;;;;;;4982369;28;20038;-77
2022/07/22 11:54:22;;;;;;;0.10;0.10;;;;;;;;;;4980415;28;20035;-82
2022/07/22 11:56:48;;;;;;;0.10;0.10;;;;;;;;;;4985821;28;20489;-82
2022/07/22 11:59:17;;;;;;;0.15;0.15;;;;;;;;;;4979123;28;20058;-80
2022/07/22 12:01:43;;;;;;;0.10;0.10;;;;;;;;;;4990567;28;20044;-75
2022/07/22 12:04:23;;;;;;;0.10;0.10;;;;;;;;;;4993419;28;20022;-76
2022/07/22 12:06:49;;;;;;;0.10;0.10;;;;;;;;;;4992811;28;20427;-76
2022/07/22 12:09:21;;;;;;;0.10;0.10;;;;;;;;;;4983330;28;20027;-77
2022/07/22 12:11:48;;;;;;;0.10;0.10;;;;;;;;;;4990050;28;20042;-76
2022/07/22 12:14:19;;;;;;;0.10;0.10;;;;;;;;;;4992884;28;20390;-78
2022/07/22 12:16:54;;;;;;;0.10;0.10;;;;;;;;;;4990345;28;20421;-76
2022/07/22 12:19:21;;;;;;;0.10;0.10;;;;;;;;;;4982161;28;20061;-76
2022/07/22 12:21:51;;;;;;;0.10;0.10;;;;;;;;;;4992903;28;20037;-76
2022/07/22 12:24:25;;;;;;;0.10;0.10;;;;;;;;;;4991944;28;20026;-75
2022/07/22 12:26:51;;;;;;;0.10;0.10;;;;;;;;;;4976588;28;20165;-79
2022/07/22 12:29:18;;;;;;;0.10;0.10;;;;;;;;;;4973381;28;20105;-76
2022/07/22 12:31:48;;;;;;;0.10;0.10;;;;;;;;;;4978404;28;20045;-78
2022/07/22 12:34:15;;;;;;;0.10;0.10;;;;;;;;;;4988716;28;20502;-77
2022/07/22 12:36:45;;;;;;;0.10;0.10;;;;;;;;;;4973659;28;20031;-79
2022/07/22 12:39:12;;;;;;;0.10;0.10;;;;;;;;;;4980851;28;20027;-78
2022/07/22 12:41:45;;;;;;;0.10;0.10;;;;;;;;;;4982113;28;20050;-78
2022/07/22 12:44:21;;;;;;;0.10;0.10;;;;;;;;;;4988570;28;20027;-80
2022/07/22 12:46:48;;;;;;;0.10;0.10;;;;;;;;;;4988360;28;20058;-78
2022/07/22 12:49:15;;;;;;;0.10;0.10;;;;;;;;;;4992102;28;20026;-77
2022/07/22 12:51:41;;;;;;;0.10;0.10;;;;;;;;;;4992172;28;20042;-81
2022/07/22 12:54:07;;;;;;;0.10;0.10;;;;;;;;;;4989000;28;20037;-79
2022/07/22 12:56:33;;;;;;;0.10;0.10;;;;;;;;;;4991485;28;20498;-80
2022/07/22 12:59:00;;;;;;;0.10;0.10;;;;;;;;;;4982447;28;20031;-80
2022/07/22 13:01:26;;;;;;;0.10;0.10;;;;;;;;;;4984383;28;20462;-81
2022/07/22 13:03:51;;;;;;;0.10;0.10;;;;;;;;;;4992370;28;20026;-79
2022/07/22 13:06:18;;;;;;;0.10;0.10;;;;;;;;;;4991302;28;20034;-76
2022/07/22 13:08:44;;;;;;;0.10;0.10;;;;;;;;;;4992149;28;20080;-75
2022/07/22 13:11:11;;;;;;;0.10;0.10;;;;;;;;;;4992352;28;20045;-80
2022/07/22 13:13:36;;;;;;;0.10;0.10;;;;;;;;;;4991549;28;20066;-76
2022/07/22 13:16:03;;;;;;;0.10;0.10;;;;;;;;;;4991831;28;20030;-80
2022/07/22 13:18:29;;;;;;;0.10;0.10;;;;;;;;;;4991917;28;20076;-78
2022/07/22 13:20:55;;;;;;;0.10;0.10;;;;;;;;;;4993672;28;20101;-75
2022/07/22 13:23:21;;;;;;;0.10;0.10;;;;;;;;;;4983699;28;20036;-80
2022/07/22 13:25:47;;;;;;;0.10;0.10;;;;;;;;;;4990486;28;20509;-74
2022/07/22 13:28:13;;;;;;;0.10;0.10;;;;;;;;;;4991865;28;20023;-76
2022/07/22 13:30:39;;;;;;;0.10;0.10;;;;;;;;;;4987698;28;20026;-81
2022/07/22 13:33:05;;;;;;;0.10;0.10;;;;;;;;;;4972292;28;20043;-81
2022/07/22 13:35:31;;;;;;;0.10;0.10;;;;;;;;;;4972211;28;20027;-75
2022/07/22 13:37:57;;;;;;;0.10;0.10;;;;;;;;;;4971267;28;20022;-75
2022/07/22 13:40:23;;;;;;;0.10;0.10;;;;;;;;;;4972203;28;20057;-75
2022/07/22 13:42:49;;;;;;;1.55;1.48;;;;;;;;;;4990382;28;20430;-76
2022/07/22 13:45:15;;;;;;;9.65;8.77;;;;;;;;;;4991408;28;20026;-79
2022/07/22 13:47:42;;;;;;;0.10;0.10;;;;;;;;;;4973537;28;20038;-76
2022/07/22 13:50:08;;;;;;;0.10;0.10;;;;;;;;;;4984957;28;20025;-74
2022/07/22 13:52:34;;;;;;;0.10;0.10;;;;;;;;;;4990939;28;20045;-77
2022/07/22 13:55:00;;;;;;;0.10;0.10;;;;;;;;;;4991079;28;20034;-79
2022/07/22 13:57:26;;;;;;;0.10;0.10;;;;;;;;;;4990915;28;20033;-77
2022/07/22 13:59:52;;;;;;;0.10;0.10;;;;;;;;;;4991254;28;20018;-75
2022/07/22 14:02:19;;;;;;;0.10;0.10;;;;;;;;;;4991497;28;20066;-75
2022/07/22 14:04:44;;;;;;;0.10;0.10;;;;;;;;;;4991630;28;20022;-75
2022/07/22 14:07:11;;;;;;;0.10;0.10;;;;;;;;;;4992015;28;20076;-77
2022/07/22 14:09:37;;;;;;;0.10;0.10;;;;;;;;;;4985684;28;20139;-81
2022/07/22 14:12:03;;;;;;;0.10;0.10;;;;;;;;;;4971330;28;20609;-81
2022/07/22 14:14:29;;;;;;;0.05;0.05;;;;;;;;;;4990650;28;20033;-76
2022/07/22 14:16:55;;;;;;;0.10;0.10;;;;;;;;;;4990621;28;20026;-82
2022/07/22 14:19:21;;;;;;;0.10;0.10;;;;;;;;;;4990727;28;20382;-79
2022/07/22 14:21:47;;;;;;;0.10;0.10;;;;;;;;;;4991561;28;20034;-81
2022/07/22 14:24:13;;;;;;;0.10;0.10;;;;;;;;;;4990547;28;20486;-76
2022/07/22 14:26:40;;;;;;;0.10;0.10;;;;;;;;;;4991710;28;20062;-74
2022/07/22 14:29:06;;;;;;;0.10;0.10;;;;;;;;;;4980490;28;20533;-78
2022/07/22 14:31:33;;;;;;;0.20;0.20;;;;;;;;;;4990831;28;20042;-81
2022/07/22 14:33:59;;;;;;;0.10;0.10;;;;;;;;;;4991423;28;20062;-77
2022/07/22 14:36:25;;;;;;;0.10;0.10;;;;;;;;;;4991101;28;20109;-78
2022/07/22 14:38:53;;;;;;;0.10;0.10;;;;;;;;;;4983772;28;20110;-81
2022/07/22 14:41:19;;;;;;;0.10;0.10;;;;;;;;;;4979431;28;20019;-74